Terminal Aerodrome Forecast
Issued by NWS Paducah, KY

Home | Current Version | Previous Version | Graphics & Text | Print | Product List | Glossary On
Versions: 1 2 3 4 5 6 7 8 9 10 11 12 13
000
FTUS43 KPAH 131700
TAFPAH
TAF
KPAH 131720Z 1318/1418 02011KT P6SM SCT025
      TEMPO 1318/1321 02012G18KT
     FM140000 02003KT P6SM SKC
     FM141500 04005KT P6SM SKC=

USA.gov is the U.S. government's official web portal to all federal, state and local government web resources and services.